Terminal Aerodrome Forecast
Issued by NWS

Home | Current Version | Previous Version | Text Only | Print | Product List | Glossary On
Versions: 1 2 3 4 5 6 7 8 9 10 11 12 13 14 15
000
FTUS46 KEKA 231739
TAFUKI
TAF
KUKI 231739Z 2318/2418 VRB04KT P6SM SCT200
     FM232000 20008G16KT P6SM SCT200
     FM240200 14006KT P6SM SCT080 BKN120
     FM241000 14005KT P6SM BKN050 OVC100
     FM241500 15004KT P6SM VCSH SCT025 OVC040=

USA.gov is the U.S. government's official web portal to all federal, state and local government web resources and services.